Time;durP1;ratioP1;P1;durP2;ratioP2;P2;SDS_P1;SDS_P2;PMS_P1;PMS_P2;Temp;Humidity;BMP_temperature;BMP_pressure;BME280_temperature;BME280_humidity;BME280_pressure;Samples;Min_cycle;Max_cycle;Signal;HPM_P1;HPM_P2
2022/03/16 00:02:21;;;;;;;113.83;62.03;;;;;;;;;;4785662;29;20428;-80
2022/03/16 00:04:50;;;;;;;111.80;62.35;;;;;;;;;;4786062;29;20454;-81
2022/03/16 00:07:17;;;;;;;117.25;63.03;;;;;;;;;;4804019;29;20924;-81
2022/03/16 00:09:43;;;;;;;115.15;61.50;;;;;;;;;;4803640;29;20455;-84
2022/03/16 00:12:10;;;;;;;107.47;61.95;;;;;;;;;;4784369;29;20461;-84
2022/03/16 00:14:36;;;;;;;109.25;61.20;;;;;;;;;;4766821;30;20949;-84
2022/03/16 00:17:03;;;;;;;103.40;58.40;;;;;;;;;;4807722;29;20443;-80
2022/03/16 00:19:29;;;;;;;103.55;58.95;;;;;;;;;;4786507;29;20443;-80
2022/03/16 00:21:57;;;;;;;106.17;58.67;;;;;;;;;;4789158;29;20436;-80
2022/03/16 00:24:23;;;;;;;103.60;58.25;;;;;;;;;;4813140;29;20446;-81
2022/03/16 00:26:49;;;;;;;104.07;57.90;;;;;;;;;;4759431;29;20478;-81
2022/03/16 00:29:15;;;;;;;101.95;58.05;;;;;;;;;;4799117;29;20821;-81
2022/03/16 00:31:41;;;;;;;111.97;58.92;;;;;;;;;;4802805;29;20419;-81
2022/03/16 00:34:07;;;;;;;113.72;59.95;;;;;;;;;;4802380;29;20439;-81
2022/03/16 00:36:34;;;;;;;111.05;60.08;;;;;;;;;;4803956;29;20431;-84
2022/03/16 00:39:00;;;;;;;105.63;58.53;;;;;;;;;;4816583;29;20446;-84
2022/03/16 00:41:26;;;;;;;105.85;59.15;;;;;;;;;;4811838;29;20826;-81
2022/03/16 00:43:53;;;;;;;115.93;60.78;;;;;;;;;;4768869;29;20955;-80
2022/03/16 00:46:19;;;;;;;112.55;59.15;;;;;;;;;;4802671;29;20617;-81
2022/03/16 00:48:45;;;;;;;109.82;58.53;;;;;;;;;;4795056;29;20797;-81
2022/03/16 00:51:12;;;;;;;119.78;60.92;;;;;;;;;;4797190;29;20453;-81
2022/03/16 00:53:40;;;;;;;115.05;59.35;;;;;;;;;;4797442;29;20445;-86
2022/03/16 00:56:07;;;;;;;113.50;59.47;;;;;;;;;;4802561;29;21336;-85
2022/03/16 00:58:33;;;;;;;117.40;59.45;;;;;;;;;;4788729;29;20943;-86
2022/03/16 01:01:00;;;;;;;112.93;59.73;;;;;;;;;;4773285;29;20435;-85
2022/03/16 01:03:27;;;;;;;114.63;59.92;;;;;;;;;;4802882;29;20469;-81
2022/03/16 01:05:53;;;;;;;109.90;59.58;;;;;;;;;;4771311;29;20506;-81
2022/03/16 01:08:19;;;;;;;109.35;57.67;;;;;;;;;;4773943;29;20951;-81
2022/03/16 01:10:45;;;;;;;109.97;58.87;;;;;;;;;;4795911;29;20538;-86
2022/03/16 01:13:11;;;;;;;108.95;56.63;;;;;;;;;;4798752;29;20449;-86
2022/03/16 01:15:37;;;;;;;102.15;55.88;;;;;;;;;;4781923;29;20444;-85
2022/03/16 01:18:03;;;;;;;103.85;58.25;;;;;;;;;;4803403;29;20457;-81
2022/03/16 01:20:30;;;;;;;100.47;54.07;;;;;;;;;;4802292;29;20462;-80
2022/03/16 01:22:56;;;;;;;101.80;55.15;;;;;;;;;;4764627;29;20955;-80
2022/03/16 01:25:22;;;;;;;100.93;54.80;;;;;;;;;;4772219;29;20473;-81
2022/03/16 01:27:48;;;;;;;107.63;55.30;;;;;;;;;;4790773;29;20432;-81
2022/03/16 01:30:14;;;;;;;99.90;53.05;;;;;;;;;;4755852;29;20443;-79
2022/03/16 01:32:41;;;;;;;111.20;55.72;;;;;;;;;;4761490;29;20454;-80
2022/03/16 01:35:07;;;;;;;109.97;57.78;;;;;;;;;;4757459;29;20439;-81
2022/03/16 01:37:34;;;;;;;114.53;58.25;;;;;;;;;;4775495;29;20427;-81
2022/03/16 01:40:00;;;;;;;117.15;61.45;;;;;;;;;;4784917;29;20427;-81
2022/03/16 01:42:26;;;;;;;128.55;63.38;;;;;;;;;;4774641;29;20439;-80
2022/03/16 01:44:54;;;;;;;118.28;60.80;;;;;;;;;;4806627;29;20435;-80
2022/03/16 01:47:21;;;;;;;132.38;62.45;;;;;;;;;;4791877;29;20427;-81
2022/03/16 01:49:48;;;;;;;104.88;56.50;;;;;;;;;;4793699;29;20451;-84
2022/03/16 01:52:19;;;;;;;101.18;55.88;;;;;;;;;;4817109;29;20433;-85
2022/03/16 01:54:45;;;;;;;89.78;51.78;;;;;;;;;;4791228;29;20573;-81
2022/03/16 01:57:12;;;;;;;97.97;53.70;;;;;;;;;;4776166;29;20423;-81
2022/03/16 01:59:39;;;;;;;113.97;58.53;;;;;;;;;;4803983;29;20443;-80
2022/03/16 02:02:05;;;;;;;97.20;53.80;;;;;;;;;;4763072;29;20435;-80
2022/03/16 02:04:32;;;;;;;101.95;54.00;;;;;;;;;;4767638;29;20497;-80
2022/03/16 02:07:01;;;;;;;107.55;56.63;;;;;;;;;;4805917;29;20421;-85
2022/03/16 02:09:27;;;;;;;121.25;59.33;;;;;;;;;;4793905;29;20960;-85
2022/03/16 02:11:53;;;;;;;129.55;61.38;;;;;;;;;;4793030;29;20450;-84
2022/03/16 02:14:19;;;;;;;123.05;59.03;;;;;;;;;;4775495;29;20446;-85
2022/03/16 02:16:46;;;;;;;108.20;55.45;;;;;;;;;;4820329;29;20427;-79
2022/03/16 02:19:12;;;;;;;133.05;59.20;;;;;;;;;;4794258;29;20448;-81
2022/03/16 02:21:40;;;;;;;130.70;61.83;;;;;;;;;;4788957;29;20449;-81
2022/03/16 02:24:06;;;;;;;197.63;62.30;;;;;;;;;;4804481;29;20518;-82
2022/03/16 02:26:32;;;;;;;406.33;69.30;;;;;;;;;;4761380;29;20464;-85
2022/03/16 02:28:58;;;;;;;639.47;82.63;;;;;;;;;;4805229;29;20500;-80
2022/03/16 02:31:25;;;;;;;711.45;83.65;;;;;;;;;;4789683;29;20438;-81
2022/03/16 02:33:51;;;;;;;410.42;63.00;;;;;;;;;;4804885;29;20434;-81
2022/03/16 02:36:17;;;;;;;413.15;68.47;;;;;;;;;;4782231;29;20417;-80
2022/03/16 02:38:44;;;;;;;173.23;53.78;;;;;;;;;;4809951;29;20434;-81
2022/03/16 02:41:10;;;;;;;62.83;40.67;;;;;;;;;;4801409;29;20454;-80
2022/03/16 02:43:36;;;;;;;69.53;42.30;;;;;;;;;;4784883;29;20441;-81
2022/03/16 02:46:03;;;;;;;60.50;40.70;;;;;;;;;;4773233;29;20447;-81
2022/03/16 02:48:29;;;;;;;58.58;40.42;;;;;;;;;;4820429;29;20435;-81
2022/03/16 02:50:56;;;;;;;51.13;36.03;;;;;;;;;;4758264;29;20940;-84
2022/03/16 02:53:22;;;;;;;50.58;36.42;;;;;;;;;;4787649;29;20840;-84
2022/03/16 02:55:48;;;;;;;67.63;43.25;;;;;;;;;;4802489;29;20445;-84
2022/03/16 02:58:15;;;;;;;77.37;46.17;;;;;;;;;;4772742;30;20562;-84
2022/03/16 03:00:42;;;;;;;58.42;39.83;;;;;;;;;;4788364;29;20455;-84
2022/03/16 03:03:08;;;;;;;59.93;39.83;;;;;;;;;;4785897;29;20520;-85
2022/03/16 03:05:34;;;;;;;65.60;41.33;;;;;;;;;;4773333;30;20425;-85
2022/03/16 03:08:00;;;;;;;66.50;41.83;;;;;;;;;;4760818;29;20516;-84
2022/03/16 03:10:27;;;;;;;70.32;43.78;;;;;;;;;;4803524;29;20453;-84
2022/03/16 03:12:53;;;;;;;58.65;38.97;;;;;;;;;;4786801;29;20441;-84
2022/03/16 03:15:19;;;;;;;84.43;48.20;;;;;;;;;;4793035;29;20433;-85
2022/03/16 03:17:45;;;;;;;58.47;39.25;;;;;;;;;;4804821;29;21000;-85
2022/03/16 03:20:12;;;;;;;57.85;39.15;;;;;;;;;;4774282;30;20478;-86
2022/03/16 03:22:39;;;;;;;69.45;42.20;;;;;;;;;;4793236;29;20452;-86
2022/03/16 03:25:05;;;;;;;76.28;44.95;;;;;;;;;;4799558;29;20433;-86
2022/03/16 03:27:32;;;;;;;96.03;52.40;;;;;;;;;;4796830;29;20442;-85
2022/03/16 03:29:59;;;;;;;101.30;53.65;;;;;;;;;;4800714;29;20535;-81
2022/03/16 03:32:25;;;;;;;102.38;54.58;;;;;;;;;;4757392;30;20441;-85
2022/03/16 03:34:51;;;;;;;95.37;51.73;;;;;;;;;;4791020;29;20421;-85
2022/03/16 03:37:18;;;;;;;80.15;48.10;;;;;;;;;;4787720;29;20448;-85
2022/03/16 03:39:44;;;;;;;159.55;61.58;;;;;;;;;;4813535;29;20452;-81
2022/03/16 03:42:11;;;;;;;86.38;49.83;;;;;;;;;;4792900;29;20497;-81
2022/03/16 03:44:37;;;;;;;80.03;46.30;;;;;;;;;;4801429;29;20425;-80
2022/03/16 03:47:07;;;;;;;77.32;45.40;;;;;;;;;;4774287;29;20486;-81
2022/03/16 03:49:34;;;;;;;89.95;48.03;;;;;;;;;;4814512;29;20461;-81
2022/03/16 03:52:00;;;;;;;81.40;45.42;;;;;;;;;;4787279;29;20441;-81
2022/03/16 03:54:27;;;;;;;123.75;48.03;;;;;;;;;;4770497;30;20993;-80
2022/03/16 03:56:53;;;;;;;118.05;49.25;;;;;;;;;;4801507;29;20445;-81
2022/03/16 03:59:20;;;;;;;81.57;46.25;;;;;;;;;;4808582;29;20473;-81
2022/03/16 04:01:46;;;;;;;80.93;46.70;;;;;;;;;;4785448;29;20478;-80
2022/03/16 04:04:12;;;;;;;82.55;48.55;;;;;;;;;;4803649;29;20438;-81
2022/03/16 04:06:39;;;;;;;83.63;48.08;;;;;;;;;;4776179;29;20452;-80
2022/03/16 04:09:05;;;;;;;94.68;52.72;;;;;;;;;;4782413;29;20443;-81
2022/03/16 04:11:32;;;;;;;235.48;64.85;;;;;;;;;;4812356;29;20497;-81
2022/03/16 04:13:58;;;;;;;95.90;50.60;;;;;;;;;;4795684;29;20464;-80
2022/03/16 04:16:24;;;;;;;122.32;60.38;;;;;;;;;;4750566;30;20506;-79
2022/03/16 04:18:50;;;;;;;108.00;55.95;;;;;;;;;;4815518;29;20477;-79
2022/03/16 04:21:16;;;;;;;98.72;52.85;;;;;;;;;;4798392;29;20444;-80
2022/03/16 04:23:42;;;;;;;112.85;57.72;;;;;;;;;;4785710;29;20481;-80
2022/03/16 04:26:08;;;;;;;126.57;62.63;;;;;;;;;;4773268;29;20431;-80
2022/03/16 04:28:34;;;;;;;129.25;64.30;;;;;;;;;;4772377;29;20450;-79
2022/03/16 04:31:01;;;;;;;118.40;61.10;;;;;;;;;;4800871;29;20447;-79
2022/03/16 04:33:28;;;;;;;99.43;56.10;;;;;;;;;;4799021;29;20447;-80
2022/03/16 04:35:54;;;;;;;125.47;61.90;;;;;;;;;;4757520;29;20429;-80
2022/03/16 04:38:20;;;;;;;143.43;67.80;;;;;;;;;;4796667;29;20930;-79
2022/03/16 04:40:47;;;;;;;148.57;69.25;;;;;;;;;;4792440;29;20463;-80
2022/03/16 04:43:13;;;;;;;148.18;69.15;;;;;;;;;;4785446;29;20432;-80
2022/03/16 04:45:39;;;;;;;151.63;70.15;;;;;;;;;;4768284;29;20441;-80
2022/03/16 04:48:07;;;;;;;156.43;73.47;;;;;;;;;;4795885;29;20956;-80
2022/03/16 04:50:34;;;;;;;169.95;76.82;;;;;;;;;;4801959;29;20447;-80
2022/03/16 04:53:00;;;;;;;156.23;74.13;;;;;;;;;;4770959;29;20447;-80
2022/03/16 04:55:26;;;;;;;172.50;77.45;;;;;;;;;;4789381;29;20431;-80
2022/03/16 04:57:53;;;;;;;167.88;75.03;;;;;;;;;;4781711;29;20441;-80
2022/03/16 05:00:19;;;;;;;158.48;74.05;;;;;;;;;;4803418;29;20847;-80
2022/03/16 05:02:45;;;;;;;159.13;72.75;;;;;;;;;;4801562;29;20443;-80
2022/03/16 05:05:11;;;;;;;158.18;72.68;;;;;;;;;;4799580;29;20565;-80
2022/03/16 05:07:38;;;;;;;149.02;73.22;;;;;;;;;;4772089;29;20466;-80
2022/03/16 05:10:07;;;;;;;153.60;74.28;;;;;;;;;;4802771;29;20505;-80
2022/03/16 05:12:38;;;;;;;147.25;72.28;;;;;;;;;;4786447;29;20439;-80
2022/03/16 05:15:06;;;;;;;144.60;71.70;;;;;;;;;;4769892;29;20434;-80
2022/03/16 05:17:32;;;;;;;139.93;72.07;;;;;;;;;;4793281;29;20437;-80
2022/03/16 05:19:58;;;;;;;141.77;69.88;;;;;;;;;;4749283;29;20448;-80
2022/03/16 05:22:24;;;;;;;150.73;71.50;;;;;;;;;;4757568;29;20443;-80
2022/03/16 05:24:50;;;;;;;150.40;74.72;;;;;;;;;;4765721;29;20479;-80
2022/03/16 05:27:19;;;;;;;140.52;71.07;;;;;;;;;;4770306;30;20425;-80
2022/03/16 05:29:45;;;;;;;149.38;72.75;;;;;;;;;;4762290;29;20779;-80
2022/03/16 05:32:11;;;;;;;153.85;71.07;;;;;;;;;;4786295;29;20476;-81
2022/03/16 05:34:37;;;;;;;139.13;70.40;;;;;;;;;;4772394;29;20431;-80
2022/03/16 05:37:04;;;;;;;132.90;67.32;;;;;;;;;;4787086;29;20434;-80
2022/03/16 05:39:30;;;;;;;122.60;67.18;;;;;;;;;;4800564;29;20446;-79
2022/03/16 05:41:56;;;;;;;124.72;65.60;;;;;;;;;;4772130;29;20462;-78
2022/03/16 05:44:22;;;;;;;113.07;63.50;;;;;;;;;;4787617;29;20485;-78
2022/03/16 05:46:50;;;;;;;114.50;63.95;;;;;;;;;;4785261;29;20437;-77
2022/03/16 05:49:16;;;;;;;112.88;62.47;;;;;;;;;;4755081;29;20441;-78
2022/03/16 05:51:42;;;;;;;106.65;62.90;;;;;;;;;;4776303;29;20525;-78
2022/03/16 05:54:08;;;;;;;103.90;60.53;;;;;;;;;;4801764;29;20442;-77
2022/03/16 05:56:35;;;;;;;101.93;60.03;;;;;;;;;;4801546;29;20446;-78
2022/03/16 05:59:01;;;;;;;100.07;60.20;;;;;;;;;;4791123;29;20449;-78
2022/03/16 06:01:27;;;;;;;362.98;85.45;;;;;;;;;;4815277;29;20461;-79
2022/03/16 06:03:54;;;;;;;362.25;82.03;;;;;;;;;;4771854;29;20445;-78
2022/03/16 06:06:20;;;;;;;994.28;140.70;;;;;;;;;;4767041;29;20442;-78
2022/03/16 06:08:47;;;;;;;251.82;74.40;;;;;;;;;;4815880;29;20448;-78
2022/03/16 06:11:13;;;;;;;109.03;61.22;;;;;;;;;;4816425;29;20964;-78
2022/03/16 06:13:39;;;;;;;107.20;59.60;;;;;;;;;;4769490;30;20432;-78
2022/03/16 06:16:05;;;;;;;97.55;59.17;;;;;;;;;;4770264;29;20530;-79
2022/03/16 06:18:31;;;;;;;109.18;61.17;;;;;;;;;;4786617;29;20431;-79
2022/03/16 06:20:57;;;;;;;101.00;57.85;;;;;;;;;;4785983;29;21087;-79
2022/03/16 06:23:23;;;;;;;154.95;60.75;;;;;;;;;;4757570;29;20435;-80
2022/03/16 06:25:49;;;;;;;113.50;60.17;;;;;;;;;;4798584;29;20446;-80
2022/03/16 06:28:15;;;;;;;197.98;67.60;;;;;;;;;;4815455;29;20446;-79
2022/03/16 06:30:41;;;;;;;112.03;60.45;;;;;;;;;;4796868;29;20443;-79
2022/03/16 06:33:07;;;;;;;95.60;57.40;;;;;;;;;;4800048;29;20467;-79
2022/03/16 06:35:34;;;;;;;102.82;59.40;;;;;;;;;;4785280;29;20442;-80
2022/03/16 06:38:00;;;;;;;94.05;57.17;;;;;;;;;;4804273;29;20846;-79
2022/03/16 06:40:26;;;;;;;148.95;62.75;;;;;;;;;;4797225;29;20487;-78
2022/03/16 06:42:56;;;;;;;97.30;58.22;;;;;;;;;;4789514;29;20536;-80
2022/03/16 06:45:23;;;;;;;101.55;59.10;;;;;;;;;;4787756;29;20443;-79
2022/03/16 06:47:50;;;;;;;98.82;58.70;;;;;;;;;;4814398;29;20522;-79
2022/03/16 06:50:18;;;;;;;97.22;58.83;;;;;;;;;;4803228;29;20989;-83
2022/03/16 06:52:44;;;;;;;108.47;60.72;;;;;;;;;;4800951;29;20435;-83
2022/03/16 06:55:10;;;;;;;110.82;67.18;;;;;;;;;;4785738;29;20436;-82
2022/03/16 06:57:37;;;;;;;101.72;60.80;;;;;;;;;;4782424;29;20928;-82
2022/03/16 07:00:04;;;;;;;97.15;56.80;;;;;;;;;;4790177;29;20522;-81
2022/03/16 07:02:30;;;;;;;90.78;55.75;;;;;;;;;;4789106;29;20434;-80
2022/03/16 07:04:58;;;;;;;91.55;56.85;;;;;;;;;;4782858;29;20435;-79
2022/03/16 07:07:26;;;;;;;90.97;55.67;;;;;;;;;;4772284;29;20527;-80
2022/03/16 07:09:52;;;;;;;86.07;54.75;;;;;;;;;;4791049;29;20445;-80
2022/03/16 07:12:18;;;;;;;91.90;57.85;;;;;;;;;;4789913;29;20446;-83
2022/03/16 07:14:45;;;;;;;82.85;53.63;;;;;;;;;;4800785;29;20796;-83
2022/03/16 07:17:11;;;;;;;83.15;54.03;;;;;;;;;;4759780;29;20439;-82
2022/03/16 07:19:37;;;;;;;85.47;55.20;;;;;;;;;;4802199;29;20758;-83
2022/03/16 07:22:04;;;;;;;83.88;52.70;;;;;;;;;;4795439;29;20456;-83
2022/03/16 07:24:30;;;;;;;83.28;52.45;;;;;;;;;;4773041;29;20451;-83
2022/03/16 07:27:02;;;;;;;78.63;52.50;;;;;;;;;;4818144;29;20438;-83
2022/03/16 07:29:28;;;;;;;70.90;50.13;;;;;;;;;;4804378;29;20446;-83
2022/03/16 07:31:54;;;;;;;64.70;49.05;;;;;;;;;;4791213;29;20431;-83
2022/03/16 07:34:21;;;;;;;66.57;48.28;;;;;;;;;;4788089;29;20924;-82
2022/03/16 07:36:47;;;;;;;64.43;46.88;;;;;;;;;;4757797;29;20777;-83
2022/03/16 07:39:13;;;;;;;61.42;45.03;;;;;;;;;;4803239;29;20933;-82
2022/03/16 07:41:40;;;;;;;59.88;43.75;;;;;;;;;;4788216;29;21138;-83
2022/03/16 07:44:07;;;;;;;59.17;42.70;;;;;;;;;;4800792;29;20433;-79
2022/03/16 07:46:33;;;;;;;58.40;41.90;;;;;;;;;;4791472;29;20482;-79
2022/03/16 07:48:59;;;;;;;56.80;42.25;;;;;;;;;;4799015;29;20442;-79
2022/03/16 07:51:25;;;;;;;59.30;42.60;;;;;;;;;;4801842;29;20447;-79
2022/03/16 07:53:51;;;;;;;54.58;41.15;;;;;;;;;;4768712;29;20437;-79
2022/03/16 07:56:17;;;;;;;54.35;39.50;;;;;;;;;;4815173;29;20599;-78
2022/03/16 07:58:45;;;;;;;48.42;38.17;;;;;;;;;;4791849;29;20436;-78
2022/03/16 08:01:11;;;;;;;52.17;36.53;;;;;;;;;;4807935;29;20467;-77
2022/03/16 08:03:37;;;;;;;47.13;35.83;;;;;;;;;;4801118;29;20435;-79
2022/03/16 08:06:03;;;;;;;47.25;35.75;;;;;;;;;;4787857;29;20451;-79
2022/03/16 08:08:30;;;;;;;48.80;36.75;;;;;;;;;;4810654;29;20451;-79
2022/03/16 08:10:56;;;;;;;44.93;34.03;;;;;;;;;;4781906;29;20543;-79
2022/03/16 08:13:22;;;;;;;42.33;31.38;;;;;;;;;;4788493;29;20430;-80
2022/03/16 08:15:49;;;;;;;39.95;30.00;;;;;;;;;;4786215;29;20471;-79
2022/03/16 08:18:15;;;;;;;40.33;30.27;;;;;;;;;;4799291;29;20426;-79
2022/03/16 08:20:41;;;;;;;34.38;27.50;;;;;;;;;;4756852;29;20443;-79
2022/03/16 08:23:07;;;;;;;36.60;27.38;;;;;;;;;;4774466;29;20810;-80
2022/03/16 08:25:33;;;;;;;32.25;26.20;;;;;;;;;;4775554;29;20474;-80
2022/03/16 08:28:00;;;;;;;34.97;25.30;;;;;;;;;;4786966;29;20504;-80
2022/03/16 08:30:26;;;;;;;30.85;25.05;;;;;;;;;;4769370;29;20455;-80
2022/03/16 08:32:52;;;;;;;29.13;23.58;;;;;;;;;;4772220;29;20446;-79
2022/03/16 08:35:18;;;;;;;29.33;22.35;;;;;;;;;;4784355;29;21556;-80
2022/03/16 08:37:44;;;;;;;27.00;22.38;;;;;;;;;;4811236;29;20804;-79
2022/03/16 08:40:11;;;;;;;26.90;21.38;;;;;;;;;;4808428;29;20443;-79
2022/03/16 08:42:37;;;;;;;28.13;21.27;;;;;;;;;;4817132;29;20518;-80
2022/03/16 08:45:03;;;;;;;26.27;21.73;;;;;;;;;;4785612;29;20709;-79
2022/03/16 08:47:31;;;;;;;26.27;21.17;;;;;;;;;;4824667;29;20425;-79
2022/03/16 08:49:57;;;;;;;26.02;20.50;;;;;;;;;;4771146;30;20807;-79
2022/03/16 08:52:23;;;;;;;27.38;20.90;;;;;;;;;;4805933;29;20478;-80
2022/03/16 08:54:50;;;;;;;26.80;20.52;;;;;;;;;;4781363;29;20964;-80
2022/03/16 08:57:17;;;;;;;27.05;21.05;;;;;;;;;;4803069;29;20448;-80
2022/03/16 08:59:43;;;;;;;29.70;21.52;;;;;;;;;;4779286;29;20440;-80
2022/03/16 09:02:09;;;;;;;32.00;22.77;;;;;;;;;;4814894;29;20495;-77
2022/03/16 09:04:35;;;;;;;30.77;22.65;;;;;;;;;;4781782;29;20435;-77
2022/03/16 09:07:05;;;;;;;32.17;24.02;;;;;;;;;;4794876;29;20547;-78
2022/03/16 09:09:31;;;;;;;32.85;24.80;;;;;;;;;;4784390;29;20470;-75
2022/03/16 09:11:57;;;;;;;36.17;24.73;;;;;;;;;;4784127;29;20451;-76
2022/03/16 09:14:24;;;;;;;33.88;25.00;;;;;;;;;;4801665;29;20443;-75
2022/03/16 09:16:50;;;;;;;35.80;25.30;;;;;;;;;;4800684;29;20435;-75
2022/03/16 09:19:20;;;;;;;32.33;23.35;;;;;;;;;;4801029;29;20912;-74
2022/03/16 09:21:50;;;;;;;30.83;22.58;;;10.80;99.90;;;;;;4816204;29;20428;-75
2022/03/16 09:24:16;;;;;;;31.10;22.40;;;;;;;;;;4798884;29;20818;-75
2022/03/16 09:26:43;;;;;;;28.85;22.35;;;;;;;;;;4783701;29;20509;-76
2022/03/16 09:29:13;;;;;;;29.83;21.92;;;10.60;99.90;;;;;;4790516;29;20450;-75
2022/03/16 09:31:39;;;;;;;28.55;20.42;;;;;;;;;;4768273;29;20536;-74
2022/03/16 09:34:07;;;;;;;28.48;20.10;;;10.70;99.90;;;;;;4770256;29;20446;-76
2022/03/16 09:36:34;;;;;;;25.33;19.98;;;;;;;;;;4769534;29;20928;-75
2022/03/16 09:39:00;;;;;;;26.40;19.85;;;;;;;;;;4790902;29;20484;-77
2022/03/16 09:41:27;;;;;;;25.35;17.40;;;;;;;;;;4786769;29;20504;-75
2022/03/16 09:43:54;;;;;;;23.38;17.60;;;11.30;99.90;;;;;;4797661;29;20437;-75
2022/03/16 09:46:31;;;;;;;23.80;16.40;;;;;;;;;;4821377;29;20936;-75
2022/03/16 09:48:57;;;;;;;22.80;16.60;;;;;;;;;;4785208;29;20443;-75
2022/03/16 09:51:24;;;;;;;23.52;16.63;;;;;;;;;;4797533;29;22738;-75
2022/03/16 09:53:50;;;;;;;22.23;16.63;;;;;;;;;;4807641;29;20436;-78
2022/03/16 09:56:18;;;;;;;20.67;16.42;;;;;;;;;;4796960;29;20428;-79
2022/03/16 09:58:44;;;;;;;22.17;16.15;;;;;;;;;;4785661;29;20932;-80
2022/03/16 10:01:11;;;;;;;20.67;15.27;;;;;;;;;;4790207;29;20439;-79
2022/03/16 10:03:37;;;;;;;18.75;15.18;;;;;;;;;;4807182;29;20447;-79
2022/03/16 10:06:06;;;;;;;20.73;15.20;;;12.40;99.90;;;;;;4788246;29;20443;-79
2022/03/16 10:08:34;;;;;;;17.90;14.80;;;;;;;;;;4791028;29;20472;-80
2022/03/16 10:13:59;;;;;;;18.88;13.55;;;12.20;99.90;;;;;;4794288;29;20461;-79
2022/03/16 10:17:43;;;;;;;18.35;13.63;;;;;;;;;;4786069;29;20449;-79
2022/03/16 10:19:11;;;;;;;17.42;13.68;;;;;;;;;;4784467;29;20443;-78
2022/03/16 10:21:39;;;;;;;15.63;12.10;;;;;;;;;;4775867;29;20435;-79
2022/03/16 10:24:05;;;;;;;14.57;11.80;;;;;;;;;;4786061;29;20442;-78
2022/03/16 10:26:31;;;;;;;15.98;11.23;;;;;;;;;;4785370;29;20448;-79
2022/03/16 10:29:04;;;;;;;14.18;11.13;;;;;;;;;;4806827;29;20446;-78
2022/03/16 10:31:31;;;;;;;16.10;11.70;;;;;;;;;;4756386;29;20455;-78
2022/03/16 10:33:58;;;;;;;15.37;12.00;;;;;;;;;;4811229;29;20435;-82
2022/03/16 10:36:28;;;;;;;14.40;11.32;;;12.50;99.90;;;;;;4786150;29;20955;-80
2022/03/16 10:38:59;;;;;;;16.00;11.73;;;;;;;;;;4795231;29;20425;-80
2022/03/16 10:47:26;;;;;;;14.45;11.13;;;;;;;;;;4813023;29;20458;-81
2022/03/16 10:50:07;;;;;;;13.60;11.50;;;;;;;;;;4797644;29;20780;-80
2022/03/16 10:52:34;;;;;;;16.48;11.50;;;;;;;;;;4782386;29;20451;-81
2022/03/16 10:55:03;;;;;;;13.27;10.82;;;;;;;;;;4784355;29;20447;-81
2022/03/16 10:57:29;;;;;;;18.20;11.73;;;;;;;;;;4774212;29;20439;-79
2022/03/16 10:59:56;;;;;;;16.90;12.10;;;;;;;;;;4819437;29;20508;-79
2022/03/16 11:02:28;;;;;;;14.88;10.32;;;;;;;;;;4760550;29;20921;-79
2022/03/16 11:04:54;;;;;;;14.50;11.18;;;;;;;;;;4772936;29;20542;-79
2022/03/16 11:07:20;;;;;;;14.55;10.10;;;;;;;;;;4818731;29;20461;-79
2022/03/16 11:09:48;;;;;;;14.00;9.98;;;13.80;99.90;;;;;;4824145;29;20529;-80
2022/03/16 11:15:05;;;;;;;12.97;9.10;;;;;;;;;;4793727;29;20455;-80
2022/03/16 11:17:32;;;;;;;16.85;11.07;;;;;;;;;;4827000;29;20987;-80
2022/03/16 11:20:00;;;;;;;17.03;12.23;;;;;;;;;;4769007;30;20435;-80
2022/03/16 11:22:26;;;;;;;14.70;10.00;;;;;;;;;;4792857;29;20934;-81
2022/03/16 11:24:59;;;;;;;13.85;9.63;;;14.10;99.90;;;;;;4787593;29;20443;-80
2022/03/16 11:27:25;;;;;;;14.45;10.68;;;13.90;99.90;;;;;;4798648;29;20432;-78
2022/03/16 11:30:10;;;;;;;22.17;10.43;;;;;;;;;;4791417;29;20454;-79
2022/03/16 11:32:41;;;;;;;13.73;9.80;;;;;;;;;;4786100;29;20438;-79
2022/03/16 11:35:08;;;;;;;12.48;9.60;;;;;;;;;;4774787;29;20443;-78
2022/03/16 11:37:43;;;;;;;14.67;10.37;;;;;;;;;;4820186;29;20938;-79
2022/03/16 11:40:14;;;;;;;14.55;9.55;;;;;;;;;;4800943;29;20428;-80
2022/03/16 11:42:59;;;;;;;15.63;10.70;;;;;;;;;;4789570;29;20447;-78
2022/03/16 11:45:38;;;;;;;12.75;9.95;;;;;;;;;;4780280;29;20449;-78
2022/03/16 11:48:31;;;;;;;14.38;10.05;;;14.20;99.90;;;;;;4779906;29;21016;-78
2022/03/16 11:51:07;;;;;;;12.77;9.40;;;;;;;;;;4799473;29;20448;-78
2022/03/16 11:56:23;;;;;;;12.97;9.90;;;13.70;99.90;;;;;;4813981;29;20444;-79
2022/03/16 11:59:02;;;;;;;14.13;10.40;;;14.00;99.90;;;;;;4782245;29;20434;-79
2022/03/16 12:01:29;;;;;;;14.18;10.00;;;;;;;;;;4811951;29;20443;-79
2022/03/16 12:04:15;;;;;;;13.60;9.95;;;14.20;99.90;;;;;;4785319;29;20498;-78
2022/03/16 12:07:04;;;;;;;18.05;9.65;;;;;;;;;;4787859;29;20939;-78
2022/03/16 12:09:39;;;;;;;13.98;10.15;;;14.20;99.90;;;;;;4800258;29;20774;-78
2022/03/16 12:15:09;;;;;;;14.27;9.57;;;;;;;;;;4787041;29;20491;-77
2022/03/16 12:17:37;;;;;;;13.88;9.43;;;;;;;;;;4795537;29;20550;-78
2022/03/16 12:20:15;;;;;;;12.98;8.70;;;14.40;99.90;;;;;;4781324;29;20444;-79
2022/03/16 12:22:46;;;;;;;12.02;8.35;;;14.50;99.90;;;;;;4773580;29;20917;-80
2022/03/16 12:25:30;;;;;;;13.40;9.55;;;14.90;99.90;;;;;;4772419;29;20443;-78
2022/03/16 12:31:06;;;;;;;12.50;9.45;;;14.40;99.90;;;;;;4809348;29;20479;-84
2022/03/16 12:33:42;;;;;;;12.00;9.15;;;14.50;99.90;;;;;;4793561;29;20439;-82
2022/03/16 12:36:12;;;;;;;14.52;10.55;;;;;;;;;;4773546;29;20443;-82
2022/03/16 12:38:55;;;;;;;13.32;9.98;;;;;;;;;;4774628;29;20440;-86
2022/03/16 12:44:08;;;;;;;14.52;10.20;;;;;;;;;;4806144;29;20445;-87
2022/03/16 12:46:34;;;;;;;14.15;10.55;;;;;;;;;;4813363;29;20761;-85
2022/03/16 12:49:05;;;;;;;15.70;11.10;;;;;;;;;;4800499;29;20450;-86
2022/03/16 12:51:37;;;;;;;14.48;10.98;;;;;;;;;;4801774;29;20459;-86
2022/03/16 12:54:07;;;;;;;14.75;10.77;;;;;;;;;;4790863;29;20439;-85
2022/03/16 12:56:40;;;;;;;13.98;10.32;;;;;;;;;;4815297;29;20451;-86
2022/03/16 12:59:08;;;;;;;15.15;10.40;;;;;;;;;;4774839;29;20440;-86
2022/03/16 13:01:34;;;;;;;15.70;11.02;;;;;;;;;;4805678;29;20485;-84
2022/03/16 13:04:02;;;;;;;15.52;11.48;;;;;;;;;;4815982;29;20505;-86
2022/03/16 13:06:33;;;;;;;13.82;10.88;;;;;;;;;;4760221;29;20443;-85
2022/03/16 13:09:02;;;;;;;14.82;11.45;;;;;;;;;;4797569;29;20462;-86
2022/03/16 13:11:30;;;;;;;17.63;11.77;;;;;;;;;;4793540;29;20541;-86
2022/03/16 13:14:06;;;;;;;19.77;11.32;;;;;;;;;;4782421;29;20431;-86
2022/03/16 13:16:36;;;;;;;15.55;10.93;;;;;;;;;;4827538;29;20449;-87
2022/03/16 13:19:03;;;;;;;15.48;10.63;;;;;;;;;;4800387;29;21018;-87
2022/03/16 13:21:30;;;;;;;16.17;11.52;;;;;;;;;;4784152;29;20429;-86
2022/03/16 13:24:05;;;;;;;17.50;11.90;;;;;;;;;;4795094;29;20442;-86
2022/03/16 13:26:32;;;;;;;15.40;11.57;;;;;;;;;;4812748;29;20443;-87
2022/03/16 13:28:59;;;;;;;17.77;12.00;;;;;;;;;;4803917;29;20460;-86
2022/03/16 13:31:29;;;;;;;18.00;12.35;;;;;;;;;;4800566;29;20946;-87
2022/03/16 13:34:01;;;;;;;16.52;12.30;;;;;;;;;;4773458;29;20435;-86
2022/03/16 13:36:32;;;;;;;15.30;12.27;;;;;;;;;;4802859;29;20442;-86
2022/03/16 13:38:59;;;;;;;17.35;12.75;;;;;;;;;;4814524;29;20879;-87
2022/03/16 13:41:29;;;;;;;18.48;12.88;;;;;;;;;;4779375;29;20442;-87
2022/03/16 13:44:05;;;;;;;18.02;12.88;;;;;;;;;;4809517;29;20471;-87
2022/03/16 13:46:38;;;;;;;18.90;13.95;;;;;;;;;;4799290;29;20443;-87
2022/03/16 13:49:14;;;;;;;17.85;12.65;;;;;;;;;;4803249;29;20447;-88
2022/03/16 13:52:00;;;;;;;16.95;12.75;;;;;;;;;;4773464;29;20954;-86
2022/03/16 13:54:26;;;;;;;18.17;12.80;;;;;;;;;;4791605;29;20990;-87
2022/03/16 13:56:54;;;;;;;17.58;13.05;;;;;;;;;;4796127;29;20443;-85
2022/03/16 13:59:20;;;;;;;17.20;12.85;;;;;;;;;;4738347;30;20534;-86
2022/03/16 14:01:46;;;;;;;20.83;13.93;;;;;;;;;;4784763;29;20429;-87
2022/03/16 14:04:19;;;;;;;18.58;14.00;;;;;;;;;;4770600;29;20445;-86
2022/03/16 14:06:54;;;;;;;19.25;14.40;;;;;;;;;;4784254;29;20934;-87
2022/03/16 14:09:21;;;;;;;20.58;13.93;;;;;;;;;;4772246;29;20752;-88
2022/03/16 14:11:48;;;;;;;17.95;14.52;;;;;;;;;;4785404;29;20452;-88
2022/03/16 14:14:17;;;;;;;18.08;15.00;;;;;;;;;;4783857;29;20445;-88
2022/03/16 14:16:46;;;;;;;21.35;14.27;;;;;;;;;;4784352;29;20524;-87
2022/03/16 14:19:26;;;;;;;21.33;14.33;;;;;;;;;;4784345;29;20938;-86
2022/03/16 14:21:52;;;;;;;19.13;14.18;;;;;;;;;;4762521;29;20428;-86
2022/03/16 14:24:18;;;;;;;19.45;14.27;;;;;;;;;;4783680;29;20424;-86
2022/03/16 14:26:44;;;;;;;19.15;14.07;;;;;;;;;;4752906;30;20452;-86
2022/03/16 14:29:10;;;;;;;20.35;14.45;;;;;;;;;;4768956;29;20441;-83
2022/03/16 14:31:37;;;;;;;20.45;14.15;;;;;;;;;;4775391;29;20459;-84
2022/03/16 14:34:05;;;;;;;20.85;13.70;;;;;;;;;;4776542;29;20421;-81